Alvin, South Carolina
Current Conditions -  °F | °C
As of 11:35 AM on Thursday 27 Nov 2014 (Local Time) from KMKS Reporting Station
Clear Clear  
Wind Chill: 54°   Ceiling: Unl
Heat Index: 54°   Visibility: 10mi
Dew Point: 37°   Wind: 8mph
Humidity: 54%   Direction: 280°W
Pressure: 30.13"   Gusts: NA
Location:  33.4606°N, 80.009°W
Report Text: KMKS 271635Z AUTO 28007KT 240V310 10SM CLR 12/03 A3013 RMK AO2
Loading
Personal Weather Stations






























Interactive Weather Map New forecast layout! Learn more

10-Day Weather Forecast

Advertisements
Track Severe Weather on mobile